Time;durP1;ratioP1;P1;durP2;ratioP2;P2;SDS_P1;SDS_P2;PMS_P1;PMS_P2;Temp;Humidity;BMP_temperature;BMP_pressure;BME280_temperature;BME280_humidity;BME280_pressure;Samples;Min_cycle;Max_cycle;Signal;HPM_P1;HPM_P2
2021/07/09 00:01:56;;;;;;;5.20;4.27;;;;;;;;;;5075269;28;20127;-61
2021/07/09 00:04:23;;;;;;;5.45;4.35;;;;;;;;;;5074838;28;20024;-60
2021/07/09 00:06:49;;;;;;;5.25;4.40;;;;;;;;;;5074455;28;20387;-61
2021/07/09 00:09:15;;;;;;;5.68;3.92;;;;;;;;;;5074714;28;20025;-62
2021/07/09 00:11:43;;;;;;;7.47;4.90;;;;;;;;;;5074716;28;20020;-60
2021/07/09 00:14:10;;;;;;;5.75;4.63;;;;;;;;;;5074510;28;20025;-61
2021/07/09 00:16:37;;;;;;;7.65;4.28;;;;;;;;;;5074815;28;20484;-61
2021/07/09 00:19:04;;;;;;;5.20;4.30;;;;;;;;;;5074265;28;20035;-61
2021/07/09 00:21:31;;;;;;;6.88;4.60;;;;;;;;;;5074367;28;20131;-61
2021/07/09 00:23:58;;;;;;;4.25;3.78;;;;;;;;;;5073991;28;20044;-61
2021/07/09 00:26:24;;;;;;;6.03;4.60;;;;;;;;;;5074200;28;20029;-61
2021/07/09 00:28:50;;;;;;;5.97;4.45;;;;;;;;;;5074425;28;20074;-61
2021/07/09 00:31:16;;;;;;;5.72;4.20;;;;;;;;;;5074198;28;20028;-61
2021/07/09 00:33:43;;;;;;;7.10;4.90;;;;;;;;;;5073619;28;20035;-61
2021/07/09 00:36:09;;;;;;;5.57;4.57;;;;;;;;;;5074036;28;20078;-60
2021/07/09 00:38:35;;;;;;;8.05;4.47;;;;;;;;;;5074132;28;20029;-60
2021/07/09 00:41:01;;;;;;;6.53;4.68;;;;;;;;;;5073947;28;20466;-61
2021/07/09 00:43:27;;;;;;;7.90;5.13;;;;;;;;;;5056042;28;20384;-60
2021/07/09 00:45:53;;;;;;;8.23;5.40;;;;;;;;;;5073947;28;20024;-61
2021/07/09 00:48:20;;;;;;;8.60;5.18;;;;;;;;;;5073921;28;20013;-61
2021/07/09 00:50:46;;;;;;;6.18;4.97;;;;;;;;;;5073731;28;20048;-61
2021/07/09 00:53:12;;;;;;;10.05;5.88;;;;;;;;;;5073739;28;20031;-61
2021/07/09 00:55:38;;;;;;;7.20;5.20;;;;;;;;;;5073755;28;20538;-60
2021/07/09 00:58:05;;;;;;;8.70;5.60;;;;;;;;;;5073649;28;20032;-61
2021/07/09 01:00:32;;;;;;;7.55;5.40;;;;;;;;;;5073647;28;20024;-61
2021/07/09 01:02:58;;;;;;;9.35;5.20;;;;;;;;;;5073668;28;20017;-61
2021/07/09 01:05:25;;;;;;;8.10;6.85;;;;;;;;;;5073452;28;20035;-61
2021/07/09 01:07:51;;;;;;;9.82;5.82;;;;;;;;;;5073547;28;20029;-61
2021/07/09 01:10:18;;;;;;;7.43;6.10;;;;;;;;;;5073451;28;20043;-61
2021/07/09 01:12:44;;;;;;;6.45;5.13;;;;;;;;;;5073411;28;20027;-61
2021/07/09 01:15:12;;;;;;;7.03;5.65;;;;;;;;;;5072602;28;20090;-61
2021/07/09 01:17:39;;;;;;;8.88;5.47;;;;;;;;;;5073200;28;20020;-60
2021/07/09 01:20:09;;;;;;;7.75;5.32;;;;;;;;;;5061964;28;20029;-61
2021/07/09 01:22:37;;;;;;;6.32;4.85;;;;;;;;;;5053224;28;20569;-61
2021/07/09 01:25:06;;;;;;;8.07;5.88;;;;;;;;;;5053127;28;20041;-61
2021/07/09 01:27:32;;;;;;;8.40;5.25;;;;;;;;;;5053270;28;20025;-61
2021/07/09 01:29:58;;;;;;;7.38;5.72;;;;;;;;;;5055161;28;20028;-60
2021/07/09 01:32:24;;;;;;;8.20;5.30;;;;;;;;;;5073034;28;20063;-61
2021/07/09 01:34:50;;;;;;;8.25;4.82;;;;;;;;;;5072832;28;20033;-60
2021/07/09 01:37:17;;;;;;;8.70;4.88;;;;;;;;;;5072984;28;20111;-61
2021/07/09 01:39:44;;;;;;;7.55;5.13;;;;;;;;;;5072855;28;20073;-61
2021/07/09 01:42:10;;;;;;;6.75;5.38;;;;;;;;;;5072848;28;20021;-66
2021/07/09 01:44:37;;;;;;;6.18;5.00;;;;;;;;;;5072768;28;20029;-61
2021/07/09 01:47:04;;;;;;;7.78;5.53;;;;;;;;;;5072730;28;20047;-61
2021/07/09 01:49:30;;;;;;;10.95;5.60;;;;;;;;;;5072599;28;20020;-60
2021/07/09 01:51:57;;;;;;;9.50;5.57;;;;;;;;;;5072612;28;20099;-61
2021/07/09 01:54:23;;;;;;;9.43;5.88;;;;;;;;;;5072781;28;20510;-61
2021/07/09 01:56:49;;;;;;;8.18;5.90;;;;;;;;;;5072830;28;20452;-61
2021/07/09 01:59:15;;;;;;;7.28;5.53;;;;;;;;;;5072576;28;20025;-61
2021/07/09 02:01:41;;;;;;;9.75;6.10;;;;;;;;;;5072596;28;20031;-61
2021/07/09 02:04:08;;;;;;;8.82;5.68;;;;;;;;;;5072242;28;20067;-60
2021/07/09 02:06:34;;;;;;;8.52;4.80;;;;;;;;;;5072487;28;20036;-61
2021/07/09 02:09:00;;;;;;;10.88;5.78;;;;;;;;;;5072496;28;20016;-61
2021/07/09 02:11:26;;;;;;;8.98;5.22;;;;;;;;;;5072536;28;20020;-60
2021/07/09 02:13:52;;;;;;;8.88;5.47;;;;;;;;;;5072436;28;20467;-61
2021/07/09 02:16:18;;;;;;;5.53;4.80;;;;;;;;;;5072273;28;20028;-63
2021/07/09 02:18:46;;;;;;;8.20;5.63;;;;;;;;;;5072285;28;20020;-61
2021/07/09 02:21:12;;;;;;;8.60;5.13;;;;;;;;;;5056190;28;20064;-61
2021/07/09 02:23:39;;;;;;;7.80;5.15;;;;;;;;;;5072235;28;20552;-62
2021/07/09 02:26:05;;;;;;;8.20;4.72;;;;;;;;;;5072299;28;20028;-61
2021/07/09 02:28:31;;;;;;;7.10;4.97;;;;;;;;;;5072272;28;20108;-61
2021/07/09 02:30:57;;;;;;;7.07;4.70;;;;;;;;;;5072114;28;20508;-61
2021/07/09 02:33:23;;;;;;;6.13;4.65;;;;;;;;;;5072280;28;20032;-61
2021/07/09 02:35:49;;;;;;;9.73;4.78;;;;;;;;;;5072296;28;20191;-62
2021/07/09 02:38:15;;;;;;;14.80;6.13;;;;;;;;;;5072145;28;20028;-61
2021/07/09 02:40:42;;;;;;;6.95;4.78;;;;;;;;;;5072175;28;20027;-60
2021/07/09 02:43:08;;;;;;;8.38;5.78;;;;;;;;;;5072227;28;20021;-61
2021/07/09 02:45:35;;;;;;;7.68;4.93;;;;;;;;;;5071826;28;20032;-61
2021/07/09 02:48:01;;;;;;;8.10;5.28;;;;;;;;;;5072171;28;20024;-61
2021/07/09 02:50:27;;;;;;;9.07;5.35;;;;;;;;;;5072092;28;20024;-61
2021/07/09 02:52:53;;;;;;;7.22;5.35;;;;;;;;;;5072050;28;20476;-61
2021/07/09 02:55:20;;;;;;;10.68;5.20;;;;;;;;;;5072530;28;20068;-61
2021/07/09 02:57:46;;;;;;;8.38;5.50;;;;;;;;;;5076117;28;20029;-61
2021/07/09 03:00:13;;;;;;;7.97;5.05;;;;;;;;;;5075941;28;20021;-61
2021/07/09 03:02:40;;;;;;;8.02;5.15;;;;;;;;;;5076009;28;20475;-60
2021/07/09 03:05:06;;;;;;;10.55;6.00;;;;;;;;;;5075785;28;20514;-60
2021/07/09 03:07:33;;;;;;;8.45;5.80;;;;;;;;;;5075907;28;20029;-61
2021/07/09 03:09:59;;;;;;;10.48;6.47;;;;;;;;;;5075748;28;20020;-61
2021/07/09 03:12:26;;;;;;;10.95;5.45;;;;;;;;;;5075565;28;20027;-61
2021/07/09 03:14:52;;;;;;;9.02;5.75;;;;;;;;;;5075636;28;20427;-61
2021/07/09 03:17:18;;;;;;;8.23;5.53;;;;;;;;;;5075646;28;20122;-61
2021/07/09 03:19:44;;;;;;;8.35;5.22;;;;;;;;;;5067076;28;20031;-61
2021/07/09 03:22:10;;;;;;;13.30;7.13;;;;;;;;;;5055584;28;20048;-61
2021/07/09 03:24:37;;;;;;;9.32;5.38;;;;;;;;;;5055437;28;20039;-61
2021/07/09 03:27:04;;;;;;;7.90;5.63;;;;;;;;;;5055513;28;20499;-61
2021/07/09 03:29:30;;;;;;;8.82;6.40;;;;;;;;;;5061403;28;20490;-61
2021/07/09 03:31:56;;;;;;;9.98;5.68;;;;;;;;;;5075449;28;20030;-61
2021/07/09 03:34:22;;;;;;;9.48;5.88;;;;;;;;;;5075326;28;20027;-61
2021/07/09 03:36:50;;;;;;;10.13;6.03;;;;;;;;;;5075250;28;20078;-61
2021/07/09 03:39:17;;;;;;;10.45;5.82;;;;;;;;;;5075321;28;20020;-60
2021/07/09 03:41:43;;;;;;;10.65;6.43;;;;;;;;;;5075162;28;20025;-61
2021/07/09 03:44:10;;;;;;;10.38;6.50;;;;;;;;;;5075054;28;20025;-61
2021/07/09 03:46:37;;;;;;;11.93;6.57;;;;;;;;;;5074966;28;20046;-61
2021/07/09 03:49:04;;;;;;;9.73;5.78;;;;;;;;;;5075080;28;20020;-61
2021/07/09 03:51:30;;;;;;;11.23;6.47;;;;;;;;;;5074883;28;20024;-61
2021/07/09 03:53:57;;;;;;;8.80;5.90;;;;;;;;;;5074970;28;20103;-61
2021/07/09 03:56:23;;;;;;;11.05;5.88;;;;;;;;;;5074991;28;20020;-61
2021/07/09 03:58:50;;;;;;;11.88;6.55;;;;;;;;;;5074728;28;20024;-61
2021/07/09 04:01:16;;;;;;;8.57;5.05;;;;;;;;;;5074777;28;20024;-61
2021/07/09 04:03:44;;;;;;;12.35;6.50;;;;;;;;;;5074756;28;20576;-61
2021/07/09 04:06:10;;;;;;;14.25;7.07;;;;;;;;;;5074542;28;20103;-61
2021/07/09 04:08:36;;;;;;;14.13;6.35;;;;;;;;;;5073780;28;20021;-61
2021/07/09 04:11:02;;;;;;;11.95;6.80;;;;;;;;;;5074700;28;20031;-61
2021/07/09 04:13:28;;;;;;;11.63;6.47;;;;;;;;;;5074482;28;20024;-61
2021/07/09 04:15:54;;;;;;;11.63;7.38;;;;;;;;;;5074611;28;20055;-61
2021/07/09 04:18:20;;;;;;;10.82;6.55;;;;;;;;;;5074157;28;20034;-61
2021/07/09 04:20:46;;;;;;;11.60;6.38;;;;;;;;;;5066087;28;20028;-61
2021/07/09 04:23:12;;;;;;;12.70;7.10;;;;;;;;;;5074143;28;20046;-60
2021/07/09 04:25:38;;;;;;;8.95;6.35;;;;;;;;;;5074343;28;20429;-61
2021/07/09 04:28:04;;;;;;;10.70;5.65;;;;;;;;;;5074519;28;20025;-60
2021/07/09 04:30:30;;;;;;;13.75;6.93;;;;;;;;;;5074308;28;20053;-61
2021/07/09 04:32:56;;;;;;;12.90;7.10;;;;;;;;;;5074205;28;20032;-61
2021/07/09 04:35:23;;;;;;;11.45;6.97;;;;;;;;;;5074239;28;20029;-61
2021/07/09 04:37:49;;;;;;;10.55;6.45;;;;;;;;;;5073962;28;20025;-60
2021/07/09 04:40:15;;;;;;;14.50;6.82;;;;;;;;;;5056027;28;20036;-60
2021/07/09 04:42:42;;;;;;;14.60;6.35;;;;;;;;;;5073931;28;20025;-60
2021/07/09 04:45:08;;;;;;;9.80;5.65;;;;;;;;;;5056029;28;20032;-61
2021/07/09 04:47:34;;;;;;;10.02;6.32;;;;;;;;;;5073897;28;20387;-61
2021/07/09 04:50:01;;;;;;;9.27;6.22;;;;;;;;;;5073864;28;20100;-61
2021/07/09 04:52:27;;;;;;;9.05;6.00;;;;;;;;;;5073905;28;20027;-61
2021/07/09 04:54:54;;;;;;;9.70;6.20;;;;;;;;;;5073679;28;20032;-62
2021/07/09 04:57:20;;;;;;;11.57;6.75;;;;;;;;;;5073620;28;20025;-61
2021/07/09 04:59:46;;;;;;;14.73;6.13;;;;;;;;;;5073730;28;20024;-61
2021/07/09 05:02:12;;;;;;;10.05;6.00;;;;;;;;;;5074022;28;20035;-61
2021/07/09 05:04:38;;;;;;;11.15;6.20;;;;;;;;;;5073569;28;20024;-61
2021/07/09 05:07:04;;;;;;;9.93;7.22;;;;;;;;;;5073618;28;20029;-61
2021/07/09 05:09:30;;;;;;;10.95;6.53;;;;;;;;;;5073781;28;20028;-60
2021/07/09 05:11:56;;;;;;;10.88;5.85;;;;;;;;;;5073997;28;20383;-61
2021/07/09 05:14:22;;;;;;;10.45;6.15;;;;;;;;;;5074313;28;20074;-60
2021/07/09 05:16:48;;;;;;;11.23;6.47;;;;;;;;;;5073696;28;20016;-61
2021/07/09 05:19:14;;;;;;;12.00;5.72;;;;;;;;;;5068868;28;20043;-60
2021/07/09 05:21:40;;;;;;;10.07;6.18;;;;;;;;;;5053024;28;20613;-61
2021/07/09 05:24:09;;;;;;;9.45;6.38;;;;;;;;;;5061287;28;20105;-61
2021/07/09 05:26:35;;;;;;;7.72;5.53;;;;;;;;;;5072978;28;20032;-61
2021/07/09 05:29:02;;;;;;;10.45;6.30;;;;;;;;;;5073006;28;20428;-61
2021/07/09 05:31:28;;;;;;;7.88;5.78;;;;;;;;;;5073137;28;20025;-61
2021/07/09 05:33:54;;;;;;;13.95;5.53;;;;;;;;;;5073117;28;20513;-60
2021/07/09 05:36:21;;;;;;;9.95;6.18;;;;;;;;;;5073007;28;20032;-61
2021/07/09 05:38:47;;;;;;;8.43;5.25;;;;;;;;;;5072968;28;20017;-61
2021/07/09 05:41:13;;;;;;;8.38;5.15;;;;;;;;;;5072806;28;20025;-60
2021/07/09 05:43:39;;;;;;;8.20;5.35;;;;;;;;;;5072868;28;20021;-61
2021/07/09 05:46:06;;;;;;;10.18;5.47;;;;;;;;;;5072686;28;20027;-61
2021/07/09 05:48:32;;;;;;;8.15;5.82;;;;;;;;;;5072882;28;20138;-61
2021/07/09 05:50:58;;;;;;;6.55;4.93;;;;;;;;;;5072719;28;20411;-61
2021/07/09 05:53:24;;;;;;;9.95;5.00;;;;;;;;;;5072761;28;20047;-61
2021/07/09 05:55:50;;;;;;;7.25;5.00;;;;;;;;;;5072619;28;20099;-60
2021/07/09 05:58:16;;;;;;;9.00;4.63;;;;;;;;;;5072606;28;20043;-61
2021/07/09 06:00:43;;;;;;;8.95;5.75;;;;;;;;;;5072506;28;20171;-61
2021/07/09 06:03:09;;;;;;;12.32;5.45;;;;;;;;;;5072436;28;20032;-61
2021/07/09 06:05:35;;;;;;;7.90;4.53;;;;;;;;;;5072490;28;20538;-60
2021/07/09 06:08:04;;;;;;;9.57;5.85;;;;;;;;;;5071850;28;20025;-61
2021/07/09 06:10:30;;;;;;;9.75;5.82;;;;;;;;;;5072375;28;20070;-60
2021/07/09 06:12:57;;;;;;;8.70;5.35;;;;;;;;;;5071463;28;20109;-61
2021/07/09 06:15:23;;;;;;;9.98;5.63;;;;;;;;;;5070741;28;20025;-61
2021/07/09 06:17:49;;;;;;;9.15;5.22;;;;;;;;;;5071437;28;20023;-61
2021/07/09 06:20:15;;;;;;;8.50;5.43;;;;;;;;;;5072204;28;20100;-61
2021/07/09 06:22:41;;;;;;;10.65;5.55;;;;;;;;;;5072247;28;20047;-61
2021/07/09 06:25:08;;;;;;;11.18;5.35;;;;;;;;;;5072084;28;20039;-61
2021/07/09 06:27:34;;;;;;;8.93;5.70;;;;;;;;;;5072420;28;20144;-61
2021/07/09 06:30:00;;;;;;;7.90;5.65;;;;;;;;;;5071690;28;20387;-61
2021/07/09 06:32:26;;;;;;;12.05;5.38;;;;;;;;;;5072385;28;20016;-61
2021/07/09 06:34:52;;;;;;;7.78;5.18;;;;;;;;;;5072354;28;20031;-60
2021/07/09 06:37:18;;;;;;;8.68;5.65;;;;;;;;;;5071998;28;20020;-61
2021/07/09 06:39:44;;;;;;;8.27;5.80;;;;;;;;;;5068472;28;20028;-60
2021/07/09 06:42:10;;;;;;;12.88;5.50;;;;;;;;;;5069754;28;20114;-60
2021/07/09 06:44:36;;;;;;;8.15;5.38;;;;;;;;;;5070251;28;20028;-61
2021/07/09 06:47:03;;;;;;;9.05;5.60;;;;;;;;;;5072349;28;20020;-61
2021/07/09 06:49:29;;;;;;;8.90;5.03;;;;;;;;;;5071520;28;20069;-61
2021/07/09 06:51:55;;;;;;;8.20;5.45;;;;;;;;;;5071834;28;20490;-61
2021/07/09 06:54:21;;;;;;;11.82;5.55;;;;;;;;;;5071621;28;20471;-61
2021/07/09 06:56:47;;;;;;;10.93;5.07;;;;;;;;;;5067572;28;20478;-62
2021/07/09 06:59:13;;;;;;;9.05;6.10;;;;;;;;;;5069956;28;20028;-61
2021/07/09 07:01:40;;;;;;;7.95;5.15;;;;;;;;;;5066881;28;20433;-60
2021/07/09 07:04:09;;;;;;;7.80;5.03;;;;;;;;;;5039603;28;20029;-61
2021/07/09 07:06:35;;;;;;;7.63;4.95;;;;;;;;;;5060344;28;20047;-61
2021/07/09 07:09:01;;;;;;;9.27;5.32;;;;;;;;;;5068391;28;20063;-61
2021/07/09 07:11:27;;;;;;;8.55;5.32;;;;;;;;;;5068196;28;20430;-61
2021/07/09 07:13:53;;;;;;;8.80;5.32;;;;;;;;;;5067750;28;20028;-61
2021/07/09 07:16:19;;;;;;;7.40;5.55;;;;;;;;;;5063137;28;20032;-62
2021/07/09 07:18:45;;;;;;;10.18;5.43;;;;;;;;;;5065216;28;20032;-61
2021/07/09 07:21:11;;;;;;;8.88;5.65;;;;;;;;;;5063099;28;20036;-61
2021/07/09 07:23:37;;;;;;;8.85;5.57;;;;;;;;;;5065625;28;20040;-62
2021/07/09 07:26:04;;;;;;;7.15;4.68;;;;;;;;;;5064632;28;20036;-61
2021/07/09 07:28:30;;;;;;;7.50;5.35;;;;;;;;;;5067905;28;20757;-61
2021/07/09 07:30:56;;;;;;;10.70;5.25;;;;;;;;;;5068389;28;20081;-61
2021/07/09 07:33:22;;;;;;;14.85;7.55;;;;;;;;;;5066097;28;20029;-61
2021/07/09 07:35:48;;;;;;;57.08;27.35;;;;;;;;;;5075150;28;20028;-61
2021/07/09 07:38:14;;;;;;;21.95;12.27;;;;;;;;;;5065290;28;20513;-61
2021/07/09 07:40:41;;;;;;;9.00;5.35;;;;;;;;;;5063522;28;20032;-61
2021/07/09 07:43:07;;;;;;;6.25;4.43;;;;;;;;;;5066200;28;20043;-61
2021/07/09 07:45:33;;;;;;;9.95;4.85;;;;;;;;;;5068319;28;20487;-62
2021/07/09 07:48:00;;;;;;;10.35;6.43;;;;;;;;;;5060327;28;20033;-61
2021/07/09 07:50:27;;;;;;;10.23;5.95;;;;;;;;;;5071625;28;20033;-62
2021/07/09 07:52:53;;;;;;;11.50;5.35;;;;;;;;;;5053417;28;20032;-61
2021/07/09 07:55:19;;;;;;;8.85;4.95;;;;;;;;;;5071697;28;20036;-61
2021/07/09 07:57:45;;;;;;;8.23;4.90;;;;;;;;;;5074251;28;20039;-62
2021/07/09 08:00:12;;;;;;;7.05;5.25;;;;;;;;;;5070869;28;20433;-60
2021/07/09 08:02:38;;;;;;;13.20;5.32;;;;;;;;;;5068100;28;20085;-61
2021/07/09 08:05:05;;;;;;;7.57;4.68;;;;;;;;;;5069248;28;20060;-61
2021/07/09 08:07:31;;;;;;;10.20;5.80;;;;;;;;;;5052083;28;20031;-61
2021/07/09 08:09:57;;;;;;;10.43;5.18;;;;;;;;;;5071243;28;20024;-62
2021/07/09 08:12:23;;;;;;;6.75;5.07;;;;;;;;;;5067767;28;20024;-62
2021/07/09 08:14:49;;;;;;;9.77;5.20;;;;;;;;;;5066390;28;20028;-62
2021/07/09 08:17:15;;;;;;;9.23;5.20;;;;;;;;;;5068903;28;20032;-62
2021/07/09 08:19:42;;;;;;;9.07;5.63;;;;;;;;;;5063509;28;20037;-61
2021/07/09 08:22:08;;;;;;;11.43;4.88;;;;;;;;;;5064763;28;20045;-60
2021/07/09 08:24:34;;;;;;;6.32;4.82;;;;;;;;;;5067689;28;20045;-61
2021/07/09 08:27:00;;;;;;;11.82;4.85;;;;;;;;;;5067511;28;20373;-61
2021/07/09 08:29:26;;;;;;;9.68;5.63;;;;;;;;;;5069298;28;20047;-61
2021/07/09 08:31:57;;;;;;;9.07;4.90;;;;;;;;;;5067741;28;20024;-61
2021/07/09 08:34:23;;;;;;;5.65;3.95;;;;;;;;;;5068504;28;20028;-61
2021/07/09 08:36:50;;;;;;;4.50;3.92;;;;;;;;;;5068697;28;20399;-61
2021/07/09 08:39:16;;;;;;;4.97;3.53;;;;;;;;;;5064485;28;20028;-62
2021/07/09 08:41:49;;;;;;;7.45;4.22;;;;;;;;;;5069354;28;20631;-61
2021/07/09 08:44:16;;;;;;;8.57;4.15;;;;;;;;;;5067558;28;20044;-61
2021/07/09 08:46:42;;;;;;;7.57;4.25;;;;;;;;;;5068583;28;20036;-62
2021/07/09 08:49:09;;;;;;;7.88;3.80;;;;;;;;;;5067012;28;20024;-61
2021/07/09 08:51:35;;;;;;;5.40;3.42;;;;;;;;;;5068345;28;20071;-61
2021/07/09 08:54:01;;;;;;;5.60;3.80;;;;;;;;;;5066163;28;20031;-62
2021/07/09 08:56:27;;;;;;;6.20;3.90;;;;;;;;;;5068009;28;20048;-62
2021/07/09 08:58:53;;;;;;;5.68;3.58;;;;;;;;;;5047991;28;20227;-61
2021/07/09 09:01:19;;;;;;;6.13;3.45;;;;;;;;;;5064678;28;20036;-61
2021/07/09 09:03:45;;;;;;;4.28;3.78;;;;;;;;;;5068777;28;20032;-61
2021/07/09 09:06:15;;;;;;;6.53;3.72;;;;;;;;;;5070207;28;20810;-60
2021/07/09 09:08:43;;;;;;;7.20;3.60;;;;;;;;;;5062738;28;20048;-61
2021/07/09 09:11:09;;;;;;;7.82;3.50;;;;;;;;;;5067649;28;20039;-62
2021/07/09 09:13:36;;;;;;;5.20;4.50;;;;;;;;;;5065219;28;20024;-61
2021/07/09 09:16:06;;;;;;;5.22;3.40;;;;;;;;;;5066407;28;20055;-61
2021/07/09 09:18:43;;;;;;;7.07;3.63;;;;;;;;;;5065510;28;20054;-62
2021/07/09 09:21:19;;;;;;;4.20;3.13;;;;;;;;;;5064691;28;20039;-61
2021/07/09 09:23:49;;;;;;;5.22;3.15;;;;;;;;;;5064929;28;20083;-62
2021/07/09 09:26:18;;;;;;;4.78;2.90;;;;;;;;;;5066154;28;20048;-62
2021/07/09 09:28:44;;;;;;;4.90;3.55;;;;;;;;;;5062440;28;20028;-61
2021/07/09 09:31:10;;;;;;;3.85;3.05;;;;;;;;;;5066782;28;20029;-61
2021/07/09 09:33:37;;;;;;;4.00;3.22;;;;;;;;;;5068540;28;20030;-61
2021/07/09 09:36:08;;;;;;;10.38;3.40;;;;;;;;;;5064312;28;20387;-61
2021/07/09 09:38:48;;;;;;;3.08;2.78;;;;;;;;;;5044994;28;20033;-61
2021/07/09 09:41:19;;;;;;;4.35;2.90;;;;;;;;;;5063901;28;20055;-62
2021/07/09 09:43:46;;;;;;;3.50;2.70;;;;;;;;;;5065100;28;20039;-62
2021/07/09 09:46:16;;;;;;;3.88;3.10;;;;;;;;;;5067942;28;20028;-61
2021/07/09 09:48:44;;;;;;;3.22;2.88;;;;;;;;;;5062645;28;20031;-61
2021/07/09 09:51:26;;;;;;;4.10;2.92;;;;;;;;;;5064402;28;20024;-62
2021/07/09 09:53:53;;;;;;;3.63;2.53;;;;;;;;;;5063867;28;20028;-60
2021/07/09 09:56:32;;;;;;;3.10;2.65;;;;;;;;;;5067910;28;20032;-60
2021/07/09 09:59:17;;;;;;;3.08;2.50;;;;;;;;;;5061558;28;20025;-61
2021/07/09 10:01:50;;;;;;;3.20;2.70;;;;;;;;;;5066915;28;20032;-62
2021/07/09 10:04:20;;;;;;;3.78;2.78;;;;;;;;;;5067172;28;20035;-61
2021/07/09 10:06:46;;;;;;;3.33;3.03;;;;;;;;;;5074361;28;20040;-62
2021/07/09 10:09:13;;;;;;;3.00;2.40;;;;;;;;;;5066161;28;20383;-62
2021/07/09 10:11:40;;;;;;;4.50;2.97;;;;;;;;;;5064644;28;20067;-61
2021/07/09 10:14:13;;;;;;;5.53;3.17;;;;;;;;;;5066996;28;20566;-61
2021/07/09 10:16:42;;;;;;;3.20;2.58;;;;;;;;;;5067421;28;20044;-60
2021/07/09 10:19:10;;;;;;;3.13;2.63;;;;;;;;;;5063823;28;20027;-61
2021/07/09 10:21:39;;;;;;;3.17;2.45;;;;;;;;;;5063602;28;20036;-61
2021/07/09 10:24:06;;;;;;;2.67;2.47;;;;;;;;;;5067389;28;20067;-61
2021/07/09 10:26:33;;;;;;;3.05;2.65;;;;;;;;;;5067101;28;20570;-61
2021/07/09 10:29:10;;;;;;;2.95;2.53;;;;;;;;;;5065365;28;20048;-61
2021/07/09 10:31:36;;;;;;;3.47;2.92;;;;;;;;;;5066402;28;20104;-61
2021/07/09 10:34:21;;;;;;;3.42;2.42;;;;;;;;;;5067119;28;20434;-62
2021/07/09 10:36:51;;;;;;;3.88;2.97;;;;;;;;;;5067194;28;20142;-62
2021/07/09 10:39:30;;;;;;;3.28;2.70;;;;;;;;;;5064906;28;20032;-62
2021/07/09 10:41:56;;;;;;;2.90;2.45;;;;;;;;;;5063423;28;20036;-61
2021/07/09 10:44:22;;;;;;;4.85;2.20;;;;;;;;;;5049005;28;20470;-61
2021/07/09 10:46:48;;;;;;;3.15;2.33;;;;;;;;;;5067671;28;20055;-61
2021/07/09 10:49:33;;;;;;;2.20;2.00;;;;;;;;;;5067384;28;20036;-62
2021/07/09 10:51:59;;;;;;;2.17;1.98;;;;;;;;;;5066728;28;20043;-61
2021/07/09 10:54:29;;;;;;;2.45;2.00;;;;;;;;;;5066875;28;20054;-61
2021/07/09 10:57:21;;;;;;;3.55;1.90;;;;;;;;;;5067641;28;20102;-62
2021/07/09 11:00:06;;;;;;;2.00;1.75;;;;;;;;;;5059617;28;20047;-61
2021/07/09 11:02:50;;;;;;;2.07;1.70;;;;;;;;;;5066991;28;20127;-61
2021/07/09 11:05:46;;;;;;;2.63;1.90;;;;;;;;;;5066450;28;20120;-60
2021/07/09 11:08:31;;;;;;;1.85;1.73;;;;;;;;;;5053270;28;20040;-62
2021/07/09 11:11:12;;;;;;;2.15;1.95;;;;;;;;;;5066846;28;20020;-61
2021/07/09 11:13:41;;;;;;;2.20;1.90;;;;;;;;;;5065158;28;20059;-60
2021/07/09 11:16:26;;;;;;;2.10;1.90;;;;;;;;;;5068711;28;20509;-60
2021/07/09 11:18:58;;;;;;;2.10;1.90;;;;;;;;;;5068862;28;20310;-61
2021/07/09 11:21:31;;;;;;;2.20;2.00;;;;;;;;;;5054580;28;20059;-60
2021/07/09 11:23:57;;;;;;;2.45;2.20;;;;;;;;;;5070940;28;20119;-61
2021/07/09 11:26:24;;;;;;;2.45;1.83;;;;;;;;;;5070745;28;20037;-61
2021/07/09 11:28:50;;;;;;;1.90;1.70;;;;;;;;;;5067802;28;20055;-60
2021/07/09 11:31:32;;;;;;;1.80;1.70;;;;;;;;;;5051632;28;20465;-61
2021/07/09 11:34:05;;;;;;;2.13;1.92;;;;;;;;;;5070104;28;20028;-61
2021/07/09 11:36:41;;;;;;;2.40;2.00;;;;;;;;;;5069994;28;20032;-61
2021/07/09 11:39:28;;;;;;;2.03;1.85;;;;;;;;;;5068885;28;20028;-60
2021/07/09 11:41:54;;;;;;;2.90;1.80;;;;;;;;;;5069811;28;20036;-60
2021/07/09 11:44:21;;;;;;;1.83;1.50;;;;;;;;;;5070575;28;20028;-60
2021/07/09 11:46:50;;;;;;;2.92;1.50;;;;;;;;;;5066597;28;20060;-61
2021/07/09 11:49:18;;;;;;;1.70;1.60;;;;;;;;;;5068191;28;20060;-61
2021/07/09 11:51:51;;;;;;;2.28;2.08;;;;;;;;;;5070289;28;20028;-60
2021/07/09 11:54:21;;;;;;;1.95;1.67;;;;;;;;;;5070791;28;20653;-61
2021/07/09 11:56:50;;;;;;;2.35;1.60;;;;;;;;;;5070270;28;20067;-61
2021/07/09 11:59:18;;;;;;;1.73;1.60;;;;;;;;;;5068457;28;20036;-61
2021/07/09 12:01:59;;;;;;;1.60;1.50;;;;;;;;;;5069466;28;20043;-60
2021/07/09 12:04:29;;;;;;;2.65;1.70;;;;;;;;;;5070058;28;20759;-61
2021/07/09 12:07:12;;;;;;;1.75;1.30;;;;;;;;;;5068721;28;20037;-61
2021/07/09 12:09:38;;;;;;;2.80;1.50;;;;;;;;;;5070971;28;20096;-61
2021/07/09 12:12:04;;;;;;;2.28;1.80;;;;;;;;;;5071045;28;20056;-61
2021/07/09 12:14:31;;;;;;;2.00;1.80;;;;;;;;;;5071236;28;20082;-61
2021/07/09 12:16:59;;;;;;;2.05;1.77;;;;;;;;;;5068598;28;20036;-61
2021/07/09 12:19:25;;;;;;;1.90;1.80;;;;;;;;;;5067603;28;20216;-61
2021/07/09 12:21:54;;;;;;;3.47;1.85;;;;;;;;;;5056192;28;20458;-61
2021/07/09 12:24:21;;;;;;;2.72;2.05;;;;;;;;;;5088008;28;20039;-61
2021/07/09 12:26:48;;;;;;;1.90;1.70;;;;;;;;;;5091262;28;20044;-61
2021/07/09 12:29:14;;;;;;;3.65;1.80;;;;;;;;;;5083876;28;20502;-61
2021/07/09 12:31:41;;;;;;;3.08;2.78;;;;;;;;;;5059627;28;20086;-61
2021/07/09 12:34:21;;;;;;;2.22;2.03;;;;;;;;;;5070294;28;20024;-61
2021/07/09 12:36:47;;;;;;;2.40;1.70;;;;;;;;;;5051992;28;20032;-65
2021/07/09 12:39:23;;;;;;;2.60;2.30;;;;;;;;;;5064360;28;20032;-60
2021/07/09 12:41:49;;;;;;;2.45;2.03;;;;;;;;;;5061605;28;20032;-62
2021/07/09 12:44:17;;;;;;;2.83;2.08;;;;;;;;;;5065625;28;20119;-60
2021/07/09 12:46:44;;;;;;;2.65;2.20;;;;;;;;;;5069548;28;20029;-61
2021/07/09 12:49:10;;;;;;;2.78;1.90;;;;;;;;;;5067203;28;20044;-61
2021/07/09 12:51:40;;;;;;;3.08;1.70;;;;;;;;;;5083313;28;20506;-59
2021/07/09 12:54:08;;;;;;;3.33;1.90;;;;;;;;;;5067555;28;20025;-60
2021/07/09 12:56:39;;;;;;;2.00;1.80;;;;;;;;;;5069440;28;20033;-60
2021/07/09 12:59:09;;;;;;;1.70;1.60;;;;;;;;;;5067466;28;20048;-62
2021/07/09 13:01:38;;;;;;;2.55;1.83;;;;;;;;;;5066551;28;20398;-60
2021/07/09 13:04:17;;;;;;;1.90;1.80;;;;;;;;;;5068940;28;20032;-61
2021/07/09 13:06:43;;;;;;;1.98;1.88;;;;;;;;;;5065240;28;20025;-61
2021/07/09 13:09:10;;;;;;;1.95;1.77;;;;;;;;;;5069445;28;20023;-61
2021/07/09 13:11:40;;;;;;;2.85;1.58;;;;;;;;;;5073076;28;20021;-60
2021/07/09 13:14:07;;;;;;;2.10;1.90;;;;;;;;;;5072653;28;20478;-60
2021/07/09 13:16:45;;;;;;;2.60;2.40;;;;;;;;;;5072927;28;20028;-63
2021/07/09 13:19:12;;;;;;;1.77;1.63;;;;;;;;;;5066947;28;20602;-60
2021/07/09 13:21:48;;;;;;;1.73;1.63;;;;;;;;;;5054422;28;20044;-60
2021/07/09 13:24:15;;;;;;;3.13;2.15;;;;;;;;;;5070073;28;20514;-60
2021/07/09 13:26:43;;;;;;;2.35;2.10;;;;;;;;;;5070520;28;20029;-60
2021/07/09 13:29:22;;;;;;;2.63;2.42;;;;;;;;;;5067043;28;20077;-61
2021/07/09 13:32:09;;;;;;;3.03;2.72;;;;;;;;;;5070133;28;20121;-61
2021/07/09 13:34:35;;;;;;;2.72;2.35;;;;;;;;;;5061471;28;20036;-60
2021/07/09 13:37:01;;;;;;;3.97;2.35;;;;;;;;;;5070839;28;20024;-61
2021/07/09 13:39:27;;;;;;;5.25;2.40;;;;;;;;;;5066435;28;20037;-60
2021/07/09 13:41:53;;;;;;;2.83;2.40;;;;;;;;;;5051820;28;20495;-60
2021/07/09 13:44:19;;;;;;;3.50;2.33;;;;;;;;;;5070535;28;20036;-60
2021/07/09 13:46:46;;;;;;;5.10;2.85;;;;;;;;;;5070972;28;20034;-60
2021/07/09 13:49:12;;;;;;;3.80;2.30;;;;;;;;;;5069294;28;20418;-60
2021/07/09 13:51:38;;;;;;;3.90;2.05;;;;;;;;;;5070647;28;20052;-60
2021/07/09 13:54:04;;;;;;;2.60;2.20;;;;;;;;;;5069874;28;20475;-60
2021/07/09 13:56:30;;;;;;;2.25;2.03;;;;;;;;;;5070627;28;20036;-61
2021/07/09 13:58:59;;;;;;;2.17;1.98;;;;;;;;;;5066837;28;20025;-60
2021/07/09 14:01:25;;;;;;;2.83;2.17;;;;;;;;;;5070266;28;20059;-60
2021/07/09 14:03:51;;;;;;;3.17;2.33;;;;;;;;;;5069475;28;20028;-61
2021/07/09 14:06:18;;;;;;;2.88;2.20;;;;;;;;;;5068734;28;20458;-61
2021/07/09 14:08:44;;;;;;;2.42;2.08;;;;;;;;;;5069787;28;20054;-61
2021/07/09 14:11:10;;;;;;;2.88;2.05;;;;;;;;;;5072005;28;20100;-60
2021/07/09 14:13:37;;;;;;;3.33;1.98;;;;;;;;;;5069794;28;20107;-60
2021/07/09 14:16:03;;;;;;;3.15;2.15;;;;;;;;;;5070986;28;20547;-60
2021/07/09 14:18:30;;;;;;;3.13;2.10;;;;;;;;;;5070485;28;20386;-60
2021/07/09 14:20:56;;;;;;;3.42;1.90;;;;;;;;;;5068589;28;20078;-61
2021/07/09 14:23:22;;;;;;;2.60;2.25;;;;;;;;;;5070583;28;20086;-61
2021/07/09 14:25:50;;;;;;;3.28;2.10;;;;;;;;;;5071189;28;20090;-60
2021/07/09 14:28:17;;;;;;;2.45;1.98;;;;;;;;;;5070105;28;20024;-60
2021/07/09 14:30:43;;;;;;;3.08;2.05;;;;;;;;;;5068817;28;20016;-61
2021/07/09 14:33:10;;;;;;;2.97;2.00;;;;;;;;;;5069829;28;20108;-61
2021/07/09 14:35:37;;;;;;;2.92;2.00;;;;;;;;;;5070408;28;20162;-60
2021/07/09 14:38:04;;;;;;;2.92;2.10;;;;;;;;;;5072101;28;20479;-59
2021/07/09 14:40:30;;;;;;;2.13;1.92;;;;;;;;;;5068318;28;20115;-60
2021/07/09 14:42:56;;;;;;;2.88;1.92;;;;;;;;;;5071790;28;20443;-60
2021/07/09 14:45:22;;;;;;;2.22;2.03;;;;;;;;;;5053001;28;20495;-60